PWSweather.com
Personal Weather Stations
Station Observations
KWIATHEL1
Marinette County, Athelstane, WI 54104

Marinette CountyAthelstane, WI 54104

Lat: 45.4, Lon: -88.12

Elevation: 960

Station Type: Acurite 5in1 Pro

http://weather.athelstanewi.com

Latest ConditionsUpdated 9:00:01 PM CDT Thursday, Jul 28, 2016
Currently Today's Max Today's Min Today's Average
Temperature 63.3°F17.4°C 78.3°F25.7°C 58.5°F14.7°C 66.7°F19.3°C
Dew Point 56.0°F13.3°C 66.5°F19.2°C 56.0°F13.3°C 60.5°F15.8°C
Winds Calm Calm 3.5 mph ESE5.6 kmh ESE - 0.4 mph 0.6 kmh
Wind Gusts 1.2 mph1.9 kmh 4.6 mph7.4 kmh - -
Humidity 77% 95% 58% 82%
Pressure 30.05 in1017.6 mb 30.05 in1017.6 mb 0.00 in0.0 mb -
Precipitation - 0.11 in2.8 mm - -
Hour Temp Dew Point Humidity Winds Wind Gusts Pressure Precip Precip Rate Daily Precip Total
09:00 PM 63.3°F17.4°C 56.0°F13.3°C 77% Calm Calm 1.2 mph1.9 kmh 30.05 in1017.6 mb - 0.00 in0.0 mm 0.11 in2.8 mm
08:55 PM 63.7°F17.6°C 56.3°F13.5°C 77% Calm Calm -- 30.05 in1017.6 mb - 0.00 in0.0 mm 0.11 in2.8 mm
08:50 PM 63.9°F17.7°C 56.1°F13.4°C 76% Calm Calm -- 30.04 in1017.3 mb - 0.00 in0.0 mm 0.11 in2.8 mm
08:45 PM 64.5°F18.1°C 56.4°F13.6°C 75% Calm Calm -- 30.05 in1017.6 mb - 0.00 in0.0 mm 0.11 in2.8 mm
08:40 PM 64.8°F18.2°C 56.6°F13.7°C 75% Calm Calm -- 30.05 in1017.6 mb - 0.00 in0.0 mm 0.11 in2.8 mm
08:35 PM 65.3°F18.5°C 56.8°F13.8°C 74% Calm Calm -- 30.04 in1017.3 mb - 0.00 in0.0 mm 0.11 in2.8 mm
08:30 PM 65.7°F18.7°C 56.8°F13.8°C 73% Calm Calm -- 30.05 in1017.6 mb - 0.00 in0.0 mm 0.11 in2.8 mm
08:25 PM 65.8°F18.8°C 56.6°F13.7°C 72% Calm Calm -- 30.04 in1017.3 mb - 0.00 in0.0 mm 0.11 in2.8 mm
08:20 PM 66.6°F19.2°C 56.9°F13.8°C 71% Calm Calm -- 30.04 in1017.3 mb - 0.00 in0.0 mm 0.11 in2.8 mm
08:15 PM 67.1°F19.5°C 57.4°F14.1°C 71% Calm Calm -- 30.04 in1017.3 mb - 0.00 in0.0 mm 0.11 in2.8 mm
08:10 PM 67.5°F19.7°C 56.9°F13.8°C 69% Calm Calm 2.3 mph3.7 kmh 30.04 in1017.3 mb - 0.00 in0.0 mm 0.11 in2.8 mm
08:05 PM 68.0°F20.0°C 57.4°F14.1°C 69% Calm Calm 1.2 mph1.9 kmh 30.04 in1017.3 mb - 0.00 in0.0 mm 0.11 in2.8 mm
08:00 PM 68.4°F20.2°C 57.8°F14.3°C 69% Calm Calm 1.2 mph1.9 kmh 30.04 in1017.3 mb - 0.00 in0.0 mm 0.11 in2.8 mm
07:55 PM 68.9°F20.5°C 58.3°F14.6°C 69% Calm Calm -- 30.04 in1017.3 mb - 0.00 in0.0 mm 0.11 in2.8 mm
07:50 PM 69.3°F20.7°C 57.8°F14.3°C 67% 1.2 mph ESE1.9 kmh ESE 1.2 mph1.9 kmh 30.04 in1017.3 mb - 0.00 in0.0 mm 0.11 in2.8 mm
07:45 PM 69.8°F21.0°C 58.8°F14.9°C 68% Calm Calm -- 0.00 in0.0 mb - 0.00 in0.0 mm 0.11 in2.8 mm
07:35 PM 70.2°F21.2°C 59.1°F15.1°C 68% Calm Calm -- 30.04 in1017.3 mb - 0.00 in0.0 mm 0.11 in2.8 mm
07:30 PM 70.3°F21.3°C 58.9°F14.9°C 67% Calm Calm -- 30.04 in1017.3 mb - 0.00 in0.0 mm 0.11 in2.8 mm
07:25 PM 70.4°F21.3°C 59.3°F15.2°C 68% Calm Calm -- 30.04 in1017.3 mb - 0.00 in0.0 mm 0.11 in2.8 mm
07:20 PM 70.8°F21.6°C 60.1°F15.6°C 69% Calm Calm -- 30.04 in1017.3 mb - 0.00 in0.0 mm 0.11 in2.8 mm
07:15 PM 70.5°F21.4°C 59.9°F15.5°C 69% Calm Calm -- 30.04 in1017.3 mb - 0.00 in0.0 mm 0.11 in2.8 mm
07:10 PM 70.3°F21.3°C 59.3°F15.2°C 68% Calm Calm -- 30.03 in1016.9 mb - 0.00 in0.0 mm 0.11 in2.8 mm
07:05 PM 70.3°F21.3°C 59.7°F15.4°C 69% Calm Calm -- 30.03 in1016.9 mb - 0.00 in0.0 mm 0.11 in2.8 mm
07:00 PM 70.3°F21.3°C 60.1°F15.6°C 70% Calm Calm -- 30.04 in1017.3 mb - 0.00 in0.0 mm 0.11 in2.8 mm
06:55 PM 70.3°F21.3°C 60.1°F15.6°C 70% Calm Calm -- 30.03 in1016.9 mb - 0.00 in0.0 mm 0.11 in2.8 mm
06:50 PM 70.3°F21.3°C 60.5°F15.8°C 71% Calm Calm -- 30.03 in1016.9 mb - 0.00 in0.0 mm 0.11 in2.8 mm
06:45 PM 70.4°F21.3°C 61.0°F16.1°C 72% Calm Calm -- 30.03 in1016.9 mb - 0.00 in0.0 mm 0.11 in2.8 mm
06:40 PM 70.9°F21.6°C 61.0°F16.1°C 71% Calm Calm -- 30.03 in1016.9 mb - 0.00 in0.0 mm 0.11 in2.8 mm
06:35 PM 71.1°F21.7°C 61.2°F16.2°C 71% Calm Calm -- 30.03 in1016.9 mb - 0.00 in0.0 mm 0.11 in2.8 mm
06:30 PM 71.1°F21.7°C 61.2°F16.2°C 71% Calm Calm -- 30.02 in1016.6 mb - 0.00 in0.0 mm 0.11 in2.8 mm
06:25 PM 71.1°F21.7°C 61.2°F16.2°C 71% Calm Calm -- 30.02 in1016.6 mb - 0.00 in0.0 mm 0.11 in2.8 mm
06:20 PM 71.1°F21.7°C 61.6°F16.4°C 72% Calm Calm -- 30.02 in1016.6 mb - 0.00 in0.0 mm 0.11 in2.8 mm
06:15 PM 71.2°F21.8°C 61.7°F16.5°C 72% Calm Calm -- 30.02 in1016.6 mb - 0.00 in0.0 mm 0.11 in2.8 mm
06:10 PM 71.2°F21.8°C 61.4°F16.3°C 71% Calm Calm -- 30.02 in1016.6 mb - 0.00 in0.0 mm 0.11 in2.8 mm
06:05 PM 71.6°F22.0°C 61.7°F16.5°C 71% Calm Calm -- 30.02 in1016.6 mb - 0.00 in0.0 mm 0.11 in2.8 mm
06:00 PM 71.6°F22.0°C 62.1°F16.7°C 72% Calm Calm -- 30.02 in1016.6 mb - 0.00 in0.0 mm 0.11 in2.8 mm
05:55 PM 71.8°F22.1°C 61.9°F16.6°C 71% Calm Calm -- 30.01 in1016.3 mb - 0.00 in0.0 mm 0.11 in2.8 mm
05:50 PM 72.0°F22.2°C 61.6°F16.4°C 70% Calm Calm -- 30.01 in1016.3 mb - 0.00 in0.0 mm 0.11 in2.8 mm
05:45 PM 72.1°F22.3°C 61.8°F16.6°C 70% Calm Calm -- 30.01 in1016.3 mb - 0.00 in0.0 mm 0.11 in2.8 mm
05:40 PM 72.1°F22.3°C 61.8°F16.6°C 70% Calm Calm -- 30.01 in1016.3 mb - 0.00 in0.0 mm 0.11 in2.8 mm
05:35 PM 72.2°F22.3°C 61.9°F16.6°C 70% Calm Calm -- 30.01 in1016.3 mb - 0.00 in0.0 mm 0.11 in2.8 mm
05:30 PM 72.7°F22.6°C 62.7°F17.1°C 71% Calm Calm -- 30.01 in1016.3 mb - 0.00 in0.0 mm 0.11 in2.8 mm
05:25 PM 72.9°F22.7°C 62.9°F17.2°C 71% Calm Calm -- 30.01 in1016.3 mb - 0.00 in0.0 mm 0.11 in2.8 mm
05:20 PM 72.9°F22.7°C 62.5°F16.9°C 70% Calm Calm -- 30.01 in1016.3 mb - 0.00 in0.0 mm 0.11 in2.8 mm
05:15 PM 73.5°F23.1°C 63.1°F17.3°C 70% Calm Calm -- 30.00 in1015.9 mb - 0.00 in0.0 mm 0.11 in2.8 mm
05:10 PM 73.8°F23.2°C 64.2°F17.9°C 72% Calm Calm -- 30.00 in1015.9 mb - 0.00 in0.0 mm 0.11 in2.8 mm
05:05 PM 74.0°F23.3°C 64.0°F17.8°C 71% Calm Calm 1.2 mph1.9 kmh 30.00 in1015.9 mb - 0.00 in0.0 mm 0.11 in2.8 mm
05:00 PM 74.7°F23.7°C 65.1°F18.4°C 72% Calm Calm -- 30.00 in1015.9 mb - 0.00 in0.0 mm 0.11 in2.8 mm
04:55 PM 74.8°F23.8°C 65.6°F18.7°C 73% Calm Calm -- 30.00 in1015.9 mb - 0.00 in0.0 mm 0.11 in2.8 mm
04:50 PM 75.0°F23.9°C 65.8°F18.8°C 73% Calm Calm -- 30.00 in1015.9 mb - 0.00 in0.0 mm 0.11 in2.8 mm
04:45 PM 74.4°F23.6°C 66.0°F18.9°C 75% Calm Calm -- 30.00 in1015.9 mb - 0.00 in0.0 mm 0.11 in2.8 mm
04:40 PM 73.9°F23.3°C 65.8°F18.8°C 76% Calm Calm -- 29.99 in1015.6 mb - 0.00 in0.0 mm 0.11 in2.8 mm
04:35 PM 73.8°F23.2°C 66.5°F19.2°C 78% Calm Calm -- 30.00 in1015.9 mb - 0.00 in0.0 mm 0.11 in2.8 mm
04:30 PM 73.8°F23.2°C 65.7°F18.7°C 76% 1.2 mph ESE1.9 kmh ESE 2.3 mph3.7 kmh 30.00 in1015.9 mb - 0.00 in0.0 mm 0.11 in2.8 mm
04:25 PM 73.5°F23.1°C 66.2°F19.0°C 78% Calm Calm -- 29.99 in1015.6 mb - 0.00 in0.0 mm 0.11 in2.8 mm
04:20 PM 73.3°F22.9°C 66.0°F18.9°C 78% Calm Calm -- 29.99 in1015.6 mb - 0.00 in0.0 mm 0.11 in2.8 mm
04:15 PM 72.5°F22.5°C 66.0°F18.9°C 80% Calm Calm -- 30.00 in1015.9 mb - 0.00 in0.0 mm 0.11 in2.8 mm
04:10 PM 72.7°F22.6°C 65.8°F18.8°C 79% Calm Calm -- 30.00 in1015.9 mb - 0.00 in0.0 mm 0.11 in2.8 mm
04:05 PM 72.6°F22.6°C 65.4°F18.6°C 78% Calm Calm -- 30.00 in1015.9 mb - 0.00 in0.0 mm 0.11 in2.8 mm
04:00 PM 72.6°F22.6°C 65.7°F18.7°C 79% Calm Calm -- 30.00 in1015.9 mb - 0.00 in0.0 mm 0.11 in2.8 mm
03:55 PM 72.4°F22.4°C 65.8°F18.8°C 80% Calm Calm -- 30.00 in1015.9 mb - 0.00 in0.0 mm 0.11 in2.8 mm
03:50 PM 72.5°F22.5°C 66.0°F18.9°C 80% Calm Calm -- 30.00 in1015.9 mb - 0.00 in0.0 mm 0.11 in2.8 mm
03:45 PM 72.7°F22.6°C 66.2°F19.0°C 80% Calm Calm -- 30.01 in1016.3 mb - 0.00 in0.0 mm 0.11 in2.8 mm
03:40 PM 72.8°F22.7°C 65.9°F18.8°C 79% Calm Calm -- 30.01 in1016.3 mb - 0.00 in0.0 mm 0.11 in2.8 mm
03:35 PM 72.9°F22.7°C 65.2°F18.4°C 77% 1.2 mph ESE1.9 kmh ESE -- 30.00 in1015.9 mb - 0.00 in0.0 mm 0.11 in2.8 mm
03:30 PM 73.8°F23.2°C 63.8°F17.7°C 71% 1.2 mph ESE1.9 kmh ESE 3.5 mph5.6 kmh 30.00 in1015.9 mb - 0.00 in0.0 mm 0.11 in2.8 mm
03:25 PM 74.3°F23.5°C 64.3°F17.9°C 71% Calm Calm -- 30.00 in1015.9 mb - 0.00 in0.0 mm 0.11 in2.8 mm
03:20 PM 74.6°F23.7°C 64.6°F18.1°C 71% Calm Calm -- 30.01 in1016.3 mb - 0.00 in0.0 mm 0.11 in2.8 mm
03:15 PM 74.7°F23.7°C 65.0°F18.3°C 72% 1.2 mph ESE1.9 kmh ESE -- 30.00 in1015.9 mb - 0.00 in0.0 mm 0.11 in2.8 mm
03:10 PM 74.5°F23.6°C 65.6°F18.7°C 74% 1.2 mph ESE1.9 kmh ESE -- 30.00 in1015.9 mb - 0.00 in0.0 mm 0.11 in2.8 mm
03:05 PM 73.8°F23.2°C 66.1°F18.9°C 77% Calm Calm 1.2 mph1.9 kmh 30.00 in1015.9 mb - 0.00 in0.0 mm 0.11 in2.8 mm
03:00 PM 73.9°F23.3°C 64.7°F18.2°C 73% Calm Calm -- 30.00 in1015.9 mb - 0.00 in0.0 mm 0.11 in2.8 mm
02:55 PM 73.8°F23.2°C 65.0°F18.3°C 74% 1.2 mph ESE1.9 kmh ESE -- 30.01 in1016.3 mb - 0.00 in0.0 mm 0.11 in2.8 mm
02:50 PM 73.8°F23.2°C 65.0°F18.3°C 74% 1.2 mph ESE1.9 kmh ESE 1.2 mph1.9 kmh 30.01 in1016.3 mb - 0.00 in0.0 mm 0.11 in2.8 mm
02:45 PM 73.8°F23.2°C 65.0°F18.3°C 74% 1.2 mph ESE1.9 kmh ESE 2.3 mph3.7 kmh 30.01 in1016.3 mb - 0.00 in0.0 mm 0.11 in2.8 mm
02:40 PM 74.7°F23.7°C 65.4°F18.6°C 73% Calm Calm -- 30.00 in1015.9 mb - 0.00 in0.0 mm 0.11 in2.8 mm
02:35 PM 75.7°F24.3°C 64.0°F17.8°C 67% Calm Calm -- 30.00 in1015.9 mb - 0.00 in0.0 mm 0.11 in2.8 mm
02:30 PM 75.9°F24.4°C 64.2°F17.9°C 67% 1.2 mph ESE1.9 kmh ESE 2.3 mph3.7 kmh 30.01 in1016.3 mb - 0.00 in0.0 mm 0.11 in2.8 mm
02:25 PM 75.9°F24.4°C 64.1°F17.8°C 67% 1.2 mph ESE1.9 kmh ESE 2.3 mph3.7 kmh 30.00 in1015.9 mb - 0.00 in0.0 mm 0.11 in2.8 mm
02:20 PM 75.3°F24.1°C 63.6°F17.6°C 67% 1.2 mph ESE1.9 kmh ESE 2.3 mph3.7 kmh 30.01 in1016.3 mb - 0.00 in0.0 mm 0.11 in2.8 mm
02:15 PM 74.8°F23.8°C 63.9°F17.7°C 69% Calm Calm 1.2 mph1.9 kmh 30.01 in1016.3 mb - 0.00 in0.0 mm 0.11 in2.8 mm
02:10 PM 74.7°F23.7°C 63.8°F17.7°C 69% Calm Calm -- 30.01 in1016.3 mb - 0.00 in0.0 mm 0.11 in2.8 mm
02:05 PM 73.9°F23.3°C 63.9°F17.7°C 71% 1.2 mph ESE1.9 kmh ESE -- 30.01 in1016.3 mb - 0.00 in0.0 mm 0.11 in2.8 mm
02:00 PM 73.8°F23.2°C 63.4°F17.4°C 70% 2.3 mph ESE3.7 kmh ESE 3.5 mph5.6 kmh 30.01 in1016.3 mb - 0.00 in0.0 mm 0.11 in2.8 mm
01:55 PM 74.7°F23.7°C 63.4°F17.4°C 68% Calm Calm 4.6 mph7.4 kmh 30.01 in1016.3 mb - 0.00 in0.0 mm 0.11 in2.8 mm
01:50 PM 74.7°F23.7°C 63.8°F17.7°C 69% 1.2 mph ESE1.9 kmh ESE -- 30.01 in1016.3 mb - 0.00 in0.0 mm 0.11 in2.8 mm
01:45 PM 74.3°F23.5°C 63.9°F17.7°C 70% 1.2 mph ESE1.9 kmh ESE 1.2 mph1.9 kmh 30.01 in1016.3 mb - 0.00 in0.0 mm 0.11 in2.8 mm
01:40 PM 75.0°F23.9°C 63.7°F17.6°C 68% 1.2 mph ESE1.9 kmh ESE 2.3 mph3.7 kmh 30.01 in1016.3 mb - 0.00 in0.0 mm 0.11 in2.8 mm
01:35 PM 74.9°F23.8°C 63.6°F17.6°C 68% 1.2 mph WNW1.9 kmh WNW 3.5 mph5.6 kmh 30.02 in1016.6 mb - 0.00 in0.0 mm 0.11 in2.8 mm
01:30 PM 74.8°F23.8°C 63.1°F17.3°C 67% 2.3 mph ESE3.7 kmh ESE 1.2 mph1.9 kmh 30.01 in1016.3 mb - 0.00 in0.0 mm 0.11 in2.8 mm
01:25 PM 74.7°F23.7°C 63.0°F17.2°C 67% 2.3 mph ESE3.7 kmh ESE 2.3 mph3.7 kmh 30.01 in1016.3 mb - 0.00 in0.0 mm 0.11 in2.8 mm
01:20 PM 74.8°F23.8°C 62.3°F16.8°C 65% 3.5 mph ESE5.6 kmh ESE 3.5 mph5.6 kmh 30.02 in1016.6 mb - 0.00 in0.0 mm 0.11 in2.8 mm
01:15 PM 74.8°F23.8°C 62.7°F17.1°C 66% 1.2 mph ESE1.9 kmh ESE 2.3 mph3.7 kmh 30.01 in1016.3 mb - 0.00 in0.0 mm 0.11 in2.8 mm
01:10 PM 75.7°F24.3°C 63.1°F17.3°C 65% 1.2 mph ESE1.9 kmh ESE 1.2 mph1.9 kmh 30.01 in1016.3 mb - 0.00 in0.0 mm 0.11 in2.8 mm
01:05 PM 75.7°F24.3°C 62.7°F17.1°C 64% 1.2 mph E1.9 kmh E 3.5 mph5.6 kmh 30.02 in1016.6 mb - 0.00 in0.0 mm 0.11 in2.8 mm
01:00 PM 76.5°F24.7°C 62.9°F17.2°C 63% 1.2 mph ESE1.9 kmh ESE 2.3 mph3.7 kmh 30.02 in1016.6 mb - 0.00 in0.0 mm 0.11 in2.8 mm
12:55 PM 76.2°F24.6°C 62.7°F17.1°C 63% 2.3 mph ESE3.7 kmh ESE 2.3 mph3.7 kmh 30.02 in1016.6 mb - 0.00 in0.0 mm 0.11 in2.8 mm
12:50 PM 76.5°F24.7°C 62.5°F16.9°C 62% 2.3 mph ESE3.7 kmh ESE 3.5 mph5.6 kmh 30.02 in1016.6 mb - 0.00 in0.0 mm 0.11 in2.8 mm
12:45 PM 77.1°F25.1°C 63.1°F17.3°C 62% 1.2 mph W1.9 kmh W 2.3 mph3.7 kmh 30.02 in1016.6 mb - 0.00 in0.0 mm 0.11 in2.8 mm
12:40 PM 76.2°F24.6°C 62.2°F16.8°C 62% 2.3 mph ESE3.7 kmh ESE 3.5 mph5.6 kmh 30.02 in1016.6 mb - 0.00 in0.0 mm 0.11 in2.8 mm
12:35 PM 77.2°F25.1°C 62.7°F17.1°C 61% 1.2 mph W1.9 kmh W 2.3 mph3.7 kmh 30.02 in1016.6 mb - 0.00 in0.0 mm 0.11 in2.8 mm
12:30 PM 77.0°F25.0°C 62.5°F16.9°C 61% 3.5 mph SE5.6 kmh SE 4.6 mph7.4 kmh 30.02 in1016.6 mb - 0.00 in0.0 mm 0.11 in2.8 mm
12:25 PM 77.4°F25.2°C 61.4°F16.3°C 58% 3.5 mph ENE5.6 kmh ENE 4.6 mph7.4 kmh 30.02 in1016.6 mb - 0.00 in0.0 mm 0.11 in2.8 mm
12:20 PM 78.3°F25.7°C 62.8°F17.1°C 59% 3.5 mph SE5.6 kmh SE 3.5 mph5.6 kmh 30.02 in1016.6 mb - 0.00 in0.0 mm 0.11 in2.8 mm
12:15 PM 77.9°F25.5°C 62.9°F17.2°C 60% 2.3 mph ESE3.7 kmh ESE 3.5 mph5.6 kmh 30.02 in1016.6 mb - 0.00 in0.0 mm 0.11 in2.8 mm
12:10 PM 76.7°F24.8°C 63.1°F17.3°C 63% 2.3 mph SE3.7 kmh SE 2.3 mph3.7 kmh 30.02 in1016.6 mb - 0.00 in0.0 mm 0.11 in2.8 mm
12:05 PM 77.1°F25.1°C 62.6°F17.0°C 61% 2.3 mph SW3.7 kmh SW 3.5 mph5.6 kmh 30.02 in1016.6 mb - 0.00 in0.0 mm 0.11 in2.8 mm
12:00 PM 76.8°F24.9°C 62.3°F16.8°C 61% 2.3 mph NE3.7 kmh NE 2.3 mph3.7 kmh 30.02 in1016.6 mb - 0.00 in0.0 mm 0.11 in2.8 mm
11:55 AM 76.3°F24.6°C 62.8°F17.1°C 63% 2.3 mph ESE3.7 kmh ESE 1.2 mph1.9 kmh 30.02 in1016.6 mb - 0.00 in0.0 mm 0.11 in2.8 mm
11:50 AM 75.6°F24.2°C 61.6°F16.4°C 62% 3.5 mph ESE5.6 kmh ESE 3.5 mph5.6 kmh 30.02 in1016.6 mb - 0.00 in0.0 mm 0.11 in2.8 mm
11:45 AM 74.9°F23.8°C 62.4°F16.9°C 65% 2.3 mph E3.7 kmh E 2.3 mph3.7 kmh 30.02 in1016.6 mb - 0.00 in0.0 mm 0.11 in2.8 mm
11:40 AM 74.7°F23.7°C 61.7°F16.5°C 64% 2.3 mph E3.7 kmh E 4.6 mph7.4 kmh 30.02 in1016.6 mb - 0.00 in0.0 mm 0.11 in2.8 mm
11:35 AM 73.6°F23.1°C 62.8°F17.1°C 69% 1.2 mph E1.9 kmh E 2.3 mph3.7 kmh 30.02 in1016.6 mb - 0.00 in0.0 mm 0.11 in2.8 mm
11:30 AM 72.6°F22.6°C 62.7°F17.1°C 71% 2.3 mph E3.7 kmh E 3.5 mph5.6 kmh 30.03 in1016.9 mb - 0.00 in0.0 mm 0.11 in2.8 mm
11:25 AM 71.5°F21.9°C 61.6°F16.4°C 71% 2.3 mph E3.7 kmh E 3.5 mph5.6 kmh 30.03 in1016.9 mb - 0.00 in0.0 mm 0.11 in2.8 mm
11:20 AM 72.0°F22.2°C 61.7°F16.5°C 70% Calm Calm 3.5 mph5.6 kmh 30.03 in1016.9 mb - 0.00 in0.0 mm 0.11 in2.8 mm
11:15 AM 71.8°F22.1°C 62.3°F16.8°C 72% 1.2 mph E1.9 kmh E -- 30.03 in1016.9 mb - 0.00 in0.0 mm 0.11 in2.8 mm
11:10 AM 71.1°F21.7°C 62.7°F17.1°C 75% 1.2 mph E1.9 kmh E 2.3 mph3.7 kmh 30.03 in1016.9 mb - 0.00 in0.0 mm 0.11 in2.8 mm
11:05 AM 70.6°F21.4°C 61.1°F16.2°C 72% Calm Calm -- 30.03 in1016.9 mb - 0.00 in0.0 mm 0.11 in2.8 mm
11:00 AM 70.5°F21.4°C 61.4°F16.3°C 73% Calm Calm -- 30.03 in1016.9 mb - 0.00 in0.0 mm 0.11 in2.8 mm
10:55 AM 71.0°F21.7°C 62.3°F16.8°C 74% Calm Calm -- 30.03 in1016.9 mb - 0.00 in0.0 mm 0.11 in2.8 mm
10:50 AM 70.5°F21.4°C 61.4°F16.3°C 73% Calm Calm -- 30.03 in1016.9 mb - 0.00 in0.0 mm 0.11 in2.8 mm
10:45 AM 70.3°F21.3°C 61.3°F16.3°C 73% Calm Calm 2.3 mph3.7 kmh 30.04 in1017.3 mb - 0.00 in0.0 mm 0.11 in2.8 mm
10:40 AM 70.9°F21.6°C 61.4°F16.3°C 72% 1.2 mph E1.9 kmh E -- 30.03 in1016.9 mb - 0.00 in0.0 mm 0.11 in2.8 mm
10:35 AM 71.8°F22.1°C 60.7°F15.9°C 68% 1.2 mph E1.9 kmh E 2.3 mph3.7 kmh 30.03 in1016.9 mb - 0.00 in0.0 mm 0.11 in2.8 mm
10:30 AM 72.1°F22.3°C 62.2°F16.8°C 71% Calm Calm 1.2 mph1.9 kmh 30.03 in1016.9 mb - 0.00 in0.0 mm 0.11 in2.8 mm
10:25 AM 71.1°F21.7°C 62.3°F16.8°C 74% Calm Calm -- 30.03 in1016.9 mb - 0.00 in0.0 mm 0.11 in2.8 mm
10:20 AM 70.2°F21.2°C 61.5°F16.4°C 74% Calm Calm -- 30.03 in1016.9 mb - 0.00 in0.0 mm 0.11 in2.8 mm
10:15 AM 71.1°F21.7°C 62.4°F16.9°C 74% 1.2 mph E1.9 kmh E 2.3 mph3.7 kmh 30.03 in1016.9 mb - 0.00 in0.0 mm 0.11 in2.8 mm
10:10 AM 72.7°F22.6°C 63.1°F17.3°C 72% 1.2 mph E1.9 kmh E 2.3 mph3.7 kmh 30.03 in1016.9 mb - 0.00 in0.0 mm 0.11 in2.8 mm
10:05 AM 71.1°F21.7°C 63.5°F17.5°C 77% 1.2 mph E1.9 kmh E 2.3 mph3.7 kmh 30.03 in1016.9 mb - 0.00 in0.0 mm 0.11 in2.8 mm
10:00 AM 69.5°F20.8°C 62.3°F16.8°C 78% 2.3 mph E3.7 kmh E 3.5 mph5.6 kmh 30.03 in1016.9 mb - 0.00 in0.0 mm 0.11 in2.8 mm
09:55 AM 69.7°F20.9°C 63.3°F17.4°C 80% 1.2 mph E1.9 kmh E 1.2 mph1.9 kmh 30.03 in1016.9 mb - 0.00 in0.0 mm 0.11 in2.8 mm
09:50 AM 68.4°F20.2°C 62.6°F17.0°C 82% 1.2 mph E1.9 kmh E -- 30.03 in1016.9 mb - 0.00 in0.0 mm 0.11 in2.8 mm
09:45 AM 68.4°F20.2°C 62.6°F17.0°C 82% Calm Calm 2.3 mph3.7 kmh 30.04 in1017.3 mb - 0.00 in0.0 mm 0.11 in2.8 mm
09:40 AM 67.0°F19.4°C 62.0°F16.7°C 84% Calm Calm 2.3 mph3.7 kmh 30.04 in1017.3 mb - 0.00 in0.0 mm 0.11 in2.8 mm
09:35 AM 66.0°F18.9°C 62.3°F16.8°C 88% 1.2 mph E1.9 kmh E -- 30.04 in1017.3 mb - 0.00 in0.0 mm 0.11 in2.8 mm
09:30 AM 65.3°F18.5°C 61.7°F16.5°C 88% Calm Calm 2.3 mph3.7 kmh 30.04 in1017.3 mb - 0.00 in0.0 mm 0.11 in2.8 mm
09:25 AM 64.2°F17.9°C 60.6°F15.9°C 88% Calm Calm 1.2 mph1.9 kmh 30.04 in1017.3 mb - 0.00 in0.0 mm 0.11 in2.8 mm
09:20 AM 63.0°F17.2°C 60.3°F15.7°C 91% Calm Calm -- 30.04 in1017.3 mb - 0.00 in0.0 mm 0.11 in2.8 mm
09:15 AM 62.2°F16.8°C 59.6°F15.3°C 91% Calm Calm -- 30.04 in1017.3 mb - 0.00 in0.0 mm 0.11 in2.8 mm
09:10 AM 62.9°F17.2°C 59.9°F15.5°C 90% Calm Calm -- 30.04 in1017.3 mb - 0.00 in0.0 mm 0.11 in2.8 mm
09:05 AM 63.0°F17.2°C 60.0°F15.6°C 90% Calm Calm -- 30.04 in1017.3 mb - 0.00 in0.0 mm 0.11 in2.8 mm
09:00 AM 62.2°F16.8°C 59.6°F15.3°C 91% Calm Calm -- 30.04 in1017.3 mb - 0.00 in0.0 mm 0.11 in2.8 mm
08:55 AM 62.1°F16.7°C 59.4°F15.2°C 91% Calm Calm -- 30.04 in1017.3 mb - 0.00 in0.0 mm 0.11 in2.8 mm
08:50 AM 61.9°F16.6°C 59.5°F15.3°C 92% Calm Calm -- 30.04 in1017.3 mb - 0.00 in0.0 mm 0.11 in2.8 mm
08:45 AM 61.3°F16.3°C 59.0°F15.0°C 92% Calm Calm -- 30.04 in1017.3 mb - 0.00 in0.0 mm 0.11 in2.8 mm
08:40 AM 61.3°F16.3°C 59.3°F15.2°C 93% Calm Calm -- 30.03 in1016.9 mb - 0.00 in0.0 mm 0.11 in2.8 mm
08:35 AM 61.2°F16.2°C 58.8°F14.9°C 92% Calm Calm -- 30.04 in1017.3 mb - 0.00 in0.0 mm 0.11 in2.8 mm
08:30 AM 61.1°F16.2°C 58.7°F14.8°C 92% Calm Calm -- 30.04 in1017.3 mb - 0.00 in0.0 mm 0.11 in2.8 mm
08:25 AM 60.9°F16.1°C 58.5°F14.7°C 92% Calm Calm -- 30.04 in1017.3 mb - 0.00 in0.0 mm 0.11 in2.8 mm
08:20 AM 60.8°F16.0°C 58.8°F14.9°C 93% Calm Calm -- 30.04 in1017.3 mb - 0.00 in0.0 mm 0.11 in2.8 mm
08:15 AM 60.4°F15.8°C 58.4°F14.7°C 93% Calm Calm -- 30.04 in1017.3 mb - 0.00 in0.0 mm 0.11 in2.8 mm
08:10 AM 60.4°F15.8°C 58.7°F14.8°C 94% Calm Calm -- 30.03 in1016.9 mb - 0.00 in0.0 mm 0.11 in2.8 mm
08:05 AM 60.3°F15.7°C 58.5°F14.7°C 94% Calm Calm -- 30.03 in1016.9 mb - 0.00 in0.0 mm 0.11 in2.8 mm
08:00 AM 60.3°F15.7°C 58.5°F14.7°C 94% Calm Calm -- 30.03 in1016.9 mb - 0.00 in0.0 mm 0.11 in2.8 mm
07:55 AM 59.9°F15.5°C 58.2°F14.6°C 94% Calm Calm -- 30.03 in1016.9 mb - 0.00 in0.0 mm 0.11 in2.8 mm
07:50 AM 59.5°F15.3°C 58.1°F14.5°C 95% Calm Calm -- 30.04 in1017.3 mb - 0.00 in0.0 mm 0.11 in2.8 mm
07:45 AM 59.5°F15.3°C 58.1°F14.5°C 95% Calm Calm -- 30.04 in1017.3 mb - 0.00 in0.0 mm 0.11 in2.8 mm
07:40 AM 59.4°F15.2°C 57.9°F14.4°C 95% Calm Calm -- 30.04 in1017.3 mb - 0.00 in0.0 mm 0.11 in2.8 mm
07:35 AM 59.4°F15.2°C 57.9°F14.4°C 95% Calm Calm -- 30.04 in1017.3 mb - 0.00 in0.0 mm 0.11 in2.8 mm
07:30 AM 59.3°F15.2°C 57.9°F14.4°C 95% Calm Calm -- 30.04 in1017.3 mb - 0.00 in0.0 mm 0.11 in2.8 mm
07:25 AM 59.1°F15.1°C 57.6°F14.2°C 95% Calm Calm -- 30.03 in1016.9 mb - 0.00 in0.0 mm 0.11 in2.8 mm
07:20 AM 59.0°F15.0°C 57.6°F14.2°C 95% Calm Calm -- 30.04 in1017.3 mb - 0.00 in0.0 mm 0.11 in2.8 mm
07:15 AM 59.0°F15.0°C 57.6°F14.2°C 95% Calm Calm -- 30.04 in1017.3 mb - 0.00 in0.0 mm 0.11 in2.8 mm
07:10 AM 58.8°F14.9°C 57.3°F14.1°C 95% Calm Calm -- 30.04 in1017.3 mb - 0.00 in0.0 mm 0.11 in2.8 mm
07:05 AM 58.6°F14.8°C 57.2°F14.0°C 95% Calm Calm -- 30.04 in1017.3 mb - 0.00 in0.0 mm 0.11 in2.8 mm
07:00 AM 58.6°F14.8°C 57.2°F14.0°C 95% Calm Calm -- 30.04 in1017.3 mb - 0.00 in0.0 mm 0.11 in2.8 mm
06:55 AM 58.5°F14.7°C 57.0°F13.9°C 95% Calm Calm -- 30.04 in1017.3 mb - 0.00 in0.0 mm 0.11 in2.8 mm
06:50 AM 58.5°F14.7°C 57.0°F13.9°C 95% Calm Calm -- 30.03 in1016.9 mb - 0.00 in0.0 mm 0.11 in2.8 mm
06:45 AM 58.5°F14.7°C 57.0°F13.9°C 95% Calm Calm -- 30.03 in1016.9 mb - 0.00 in0.0 mm 0.11 in2.8 mm
06:40 AM 58.5°F14.7°C 57.0°F13.9°C 95% Calm Calm -- 30.04 in1017.3 mb - 0.00 in0.0 mm 0.11 in2.8 mm
06:35 AM 58.5°F14.7°C 57.0°F13.9°C 95% Calm Calm -- 30.03 in1016.9 mb - 0.00 in0.0 mm 0.11 in2.8 mm
06:30 AM 58.5°F14.7°C 57.0°F13.9°C 95% Calm Calm -- 30.04 in1017.3 mb - 0.00 in0.0 mm 0.11 in2.8 mm
06:25 AM 58.5°F14.7°C 57.0°F13.9°C 95% Calm Calm -- 30.04 in1017.3 mb - 0.00 in0.0 mm 0.11 in2.8 mm
06:20 AM 58.5°F14.7°C 57.0°F13.9°C 95% Calm Calm -- 30.03 in1016.9 mb - 0.00 in0.0 mm 0.11 in2.8 mm
06:15 AM 58.5°F14.7°C 57.0°F13.9°C 95% Calm Calm -- 30.04 in1017.3 mb - 0.00 in0.0 mm 0.11 in2.8 mm
06:10 AM 58.5°F14.7°C 57.0°F13.9°C 95% Calm Calm -- 30.03 in1016.9 mb - 0.00 in0.0 mm 0.11 in2.8 mm
06:05 AM 58.5°F14.7°C 57.0°F13.9°C 95% Calm Calm -- 30.03 in1016.9 mb - 0.01 in0.3 mm 0.11 in2.8 mm
06:00 AM 58.5°F14.7°C 57.0°F13.9°C 95% Calm Calm -- 30.03 in1016.9 mb - 0.01 in0.3 mm 0.11 in2.8 mm
05:55 AM 58.5°F14.7°C 57.0°F13.9°C 95% Calm Calm 2.3 mph3.7 kmh 30.03 in1016.9 mb - 0.00 in0.0 mm 0.10 in2.5 mm
05:50 AM 58.5°F14.7°C 57.0°F13.9°C 95% Calm Calm -- 30.03 in1016.9 mb - 0.00 in0.0 mm 0.10 in2.5 mm
05:45 AM 58.5°F14.7°C 57.0°F13.9°C 95% Calm Calm -- 30.02 in1016.6 mb - 0.00 in0.0 mm 0.10 in2.5 mm
05:40 AM 58.6°F14.8°C 57.2°F14.0°C 95% Calm Calm -- 30.02 in1016.6 mb - 0.00 in0.0 mm 0.10 in2.5 mm
05:35 AM 58.6°F14.8°C 57.2°F14.0°C 95% Calm Calm -- 30.02 in1016.6 mb - 0.01 in0.3 mm 0.10 in2.5 mm
05:30 AM 58.6°F14.8°C 57.2°F14.0°C 95% Calm Calm -- 30.02 in1016.6 mb - 0.00 in0.0 mm 0.09 in2.3 mm
05:25 AM 58.6°F14.8°C 57.2°F14.0°C 95% Calm Calm 1.2 mph1.9 kmh 30.02 in1016.6 mb - 0.00 in0.0 mm 0.09 in2.3 mm
05:20 AM 58.6°F14.8°C 57.2°F14.0°C 95% Calm Calm -- 30.02 in1016.6 mb - 0.00 in0.0 mm 0.09 in2.3 mm
05:15 AM 58.6°F14.8°C 57.2°F14.0°C 95% Calm Calm -- 30.02 in1016.6 mb - 0.01 in0.3 mm 0.09 in2.3 mm
05:10 AM 59.0°F15.0°C 57.6°F14.2°C 95% Calm Calm -- 30.02 in1016.6 mb - 0.01 in0.3 mm 0.09 in2.3 mm
05:05 AM 59.0°F15.0°C 57.6°F14.2°C 95% Calm Calm -- 30.02 in1016.6 mb - 0.01 in0.3 mm 0.08 in2.0 mm
05:00 AM 59.2°F15.1°C 57.7°F14.3°C 95% Calm Calm -- 30.02 in1016.6 mb - 0.01 in0.3 mm 0.08 in2.0 mm
04:55 AM 59.2°F15.1°C 57.7°F14.3°C 95% Calm Calm -- 30.02 in1016.6 mb - 0.01 in0.3 mm 0.07 in1.8 mm
04:50 AM 59.2°F15.1°C 57.7°F14.3°C 95% Calm Calm -- 30.02 in1016.6 mb - 0.00 in0.0 mm 0.06 in1.5 mm
04:45 AM 59.4°F15.2°C 57.9°F14.4°C 95% Calm Calm -- 30.01 in1016.3 mb - 0.00 in0.0 mm 0.06 in1.5 mm
04:40 AM 59.4°F15.2°C 57.9°F14.4°C 95% Calm Calm 1.2 mph1.9 kmh 30.01 in1016.3 mb - 0.01 in0.3 mm 0.06 in1.5 mm
04:35 AM 59.4°F15.2°C 57.9°F14.4°C 95% Calm Calm -- 30.01 in1016.3 mb - 0.01 in0.3 mm 0.06 in1.5 mm
04:30 AM 59.4°F15.2°C 57.9°F14.4°C 95% Calm Calm -- 30.01 in1016.3 mb - 0.00 in0.0 mm 0.05 in1.3 mm
04:25 AM 59.4°F15.2°C 57.9°F14.4°C 95% Calm Calm -- 30.01 in1016.3 mb - 0.00 in0.0 mm 0.05 in1.3 mm
04:20 AM 59.4°F15.2°C 57.9°F14.4°C 95% Calm Calm -- 30.01 in1016.3 mb - 0.00 in0.0 mm 0.05 in1.3 mm
04:15 AM 59.5°F15.3°C 58.1°F14.5°C 95% Calm Calm -- 30.01 in1016.3 mb - 0.00 in0.0 mm 0.05 in1.3 mm
04:10 AM 59.5°F15.3°C 58.1°F14.5°C 95% Calm Calm -- 30.01 in1016.3 mb - 0.00 in0.0 mm 0.05 in1.3 mm
04:05 AM 59.5°F15.3°C 58.1°F14.5°C 95% Calm Calm -- 30.01 in1016.3 mb - 0.00 in0.0 mm 0.05 in1.3 mm
04:00 AM 59.5°F15.3°C 58.1°F14.5°C 95% Calm Calm -- 30.01 in1016.3 mb - 0.00 in0.0 mm 0.05 in1.3 mm
03:55 AM 59.9°F15.5°C 58.5°F14.7°C 95% Calm Calm -- 30.02 in1016.6 mb - 0.00 in0.0 mm 0.05 in1.3 mm
03:50 AM 59.9°F15.5°C 58.5°F14.7°C 95% Calm Calm -- 30.01 in1016.3 mb - 0.00 in0.0 mm 0.05 in1.3 mm
03:45 AM 59.9°F15.5°C 58.5°F14.7°C 95% Calm Calm -- 30.02 in1016.6 mb - 0.00 in0.0 mm 0.05 in1.3 mm
03:40 AM 59.9°F15.5°C 58.5°F14.7°C 95% Calm Calm 1.2 mph1.9 kmh 30.01 in1016.3 mb - 0.00 in0.0 mm 0.05 in1.3 mm
03:35 AM 60.1°F15.6°C 58.6°F14.8°C 95% Calm Calm -- 30.01 in1016.3 mb - 0.00 in0.0 mm 0.05 in1.3 mm
03:30 AM 60.1°F15.6°C 58.6°F14.8°C 95% Calm Calm -- 30.01 in1016.3 mb - 0.00 in0.0 mm 0.05 in1.3 mm
03:25 AM 60.1°F15.6°C 58.6°F14.8°C 95% Calm Calm -- 30.01 in1016.3 mb - 0.00 in0.0 mm 0.05 in1.3 mm
03:20 AM 60.1°F15.6°C 58.6°F14.8°C 95% Calm Calm -- 30.01 in1016.3 mb - 0.00 in0.0 mm 0.05 in1.3 mm
03:15 AM 60.1°F15.6°C 58.6°F14.8°C 95% Calm Calm -- 30.00 in1015.9 mb - 0.00 in0.0 mm 0.05 in1.3 mm
03:10 AM 60.1°F15.6°C 58.6°F14.8°C 95% Calm Calm -- 30.01 in1016.3 mb - 0.01 in0.3 mm 0.05 in1.3 mm
03:05 AM 60.3°F15.7°C 58.8°F14.9°C 95% Calm Calm -- 30.00 in1015.9 mb - 0.00 in0.0 mm 0.04 in1.0 mm
03:00 AM 60.3°F15.7°C 58.8°F14.9°C 95% Calm Calm -- 30.00 in1015.9 mb - 0.00 in0.0 mm 0.04 in1.0 mm
02:55 AM 60.3°F15.7°C 58.8°F14.9°C 95% Calm Calm -- 30.00 in1015.9 mb - 0.00 in0.0 mm 0.04 in1.0 mm
02:50 AM 60.3°F15.7°C 58.8°F14.9°C 95% Calm Calm -- 30.00 in1015.9 mb - 0.00 in0.0 mm 0.04 in1.0 mm
02:45 AM 60.3°F15.7°C 58.8°F14.9°C 95% Calm Calm -- 30.00 in1015.9 mb - 0.00 in0.0 mm 0.04 in1.0 mm
02:40 AM 60.3°F15.7°C 58.8°F14.9°C 95% Calm Calm -- 30.00 in1015.9 mb - 0.01 in0.3 mm 0.04 in1.0 mm
02:35 AM 60.3°F15.7°C 58.8°F14.9°C 95% Calm Calm -- 30.01 in1016.3 mb - 0.00 in0.0 mm 0.03 in0.8 mm
02:30 AM 60.3°F15.7°C 58.8°F14.9°C 95% Calm Calm -- 30.01 in1016.3 mb - 0.01 in0.3 mm 0.03 in0.8 mm
02:25 AM 60.3°F15.7°C 58.8°F14.9°C 95% Calm Calm -- 30.01 in1016.3 mb - 0.00 in0.0 mm 0.02 in0.5 mm
02:20 AM 60.3°F15.7°C 58.8°F14.9°C 95% Calm Calm -- 30.01 in1016.3 mb - 0.00 in0.0 mm 0.02 in0.5 mm
02:15 AM 60.3°F15.7°C 58.8°F14.9°C 95% Calm Calm -- 30.00 in1015.9 mb - 0.01 in0.3 mm 0.02 in0.5 mm
02:10 AM 60.3°F15.7°C 58.8°F14.9°C 95% Calm Calm -- 30.01 in1016.3 mb - 0.00 in0.0 mm 0.01 in0.3 mm
02:05 AM 60.3°F15.7°C 58.8°F14.9°C 95% Calm Calm -- 30.01 in1016.3 mb - 0.00 in0.0 mm 0.01 in0.3 mm
02:00 AM 60.3°F15.7°C 58.8°F14.9°C 95% Calm Calm -- 30.00 in1015.9 mb - 0.00 in0.0 mm 0.01 in0.3 mm
01:55 AM 60.3°F15.7°C 58.8°F14.9°C 95% Calm Calm -- 30.01 in1016.3 mb - 0.00 in0.0 mm 0.01 in0.3 mm
01:50 AM 60.4°F15.8°C 59.0°F15.0°C 95% Calm Calm -- 30.01 in1016.3 mb - 0.00 in0.0 mm 0.01 in0.3 mm
01:45 AM 60.4°F15.8°C 59.0°F15.0°C 95% Calm Calm -- 30.01 in1016.3 mb - 0.00 in0.0 mm 0.01 in0.3 mm
01:40 AM 60.4°F15.8°C 59.0°F15.0°C 95% Calm Calm -- 30.01 in1016.3 mb - 0.00 in0.0 mm 0.01 in0.3 mm
01:35 AM 60.8°F16.0°C 59.4°F15.2°C 95% Calm Calm -- 30.00 in1015.9 mb - 0.00 in0.0 mm 0.01 in0.3 mm
01:30 AM 60.8°F16.0°C 59.4°F15.2°C 95% Calm Calm -- 30.00 in1015.9 mb - 0.00 in0.0 mm 0.01 in0.3 mm
01:25 AM 60.8°F16.0°C 59.4°F15.2°C 95% Calm Calm -- 30.00 in1015.9 mb - 0.00 in0.0 mm 0.01 in0.3 mm
01:20 AM 61.0°F16.1°C 59.5°F15.3°C 95% Calm Calm -- 30.01 in1016.3 mb - 0.00 in0.0 mm 0.01 in0.3 mm
01:15 AM 61.0°F16.1°C 59.5°F15.3°C 95% Calm Calm -- 30.01 in1016.3 mb - 0.00 in0.0 mm 0.01 in0.3 mm
01:10 AM 61.0°F16.1°C 59.5°F15.3°C 95% Calm Calm -- 30.01 in1016.3 mb - 0.00 in0.0 mm 0.01 in0.3 mm
01:05 AM 61.2°F16.2°C 59.7°F15.4°C 95% Calm Calm -- 30.01 in1016.3 mb - 0.00 in0.0 mm 0.01 in0.3 mm
01:00 AM 61.2°F16.2°C 59.7°F15.4°C 95% Calm Calm -- 30.01 in1016.3 mb - 0.01 in0.3 mm 0.01 in0.3 mm
12:55 AM 61.2°F16.2°C 59.7°F15.4°C 95% Calm Calm -- 30.02 in1016.6 mb - 0.00 in0.0 mm 0.00 in0.0 mm
12:50 AM 61.2°F16.2°C 59.7°F15.4°C 95% Calm Calm -- 30.01 in1016.3 mb - 0.00 in0.0 mm 0.00 in0.0 mm
12:45 AM 61.2°F16.2°C 59.7°F15.4°C 95% Calm Calm -- 30.02 in1016.6 mb - 0.00 in0.0 mm 0.00 in0.0 mm
12:40 AM 61.3°F16.3°C 59.9°F15.5°C 95% Calm Calm -- 30.01 in1016.3 mb - 0.00 in0.0 mm 0.00 in0.0 mm
12:35 AM 61.3°F16.3°C 59.6°F15.3°C 94% Calm Calm -- 30.01 in1016.3 mb - 0.00 in0.0 mm 0.00 in0.0 mm
12:30 AM 61.3°F16.3°C 59.6°F15.3°C 94% Calm Calm -- 30.01 in1016.3 mb - 0.00 in0.0 mm 0.00 in0.0 mm
12:25 AM 61.3°F16.3°C 59.6°F15.3°C 94% Calm Calm -- 30.01 in1016.3 mb - 0.00 in0.0 mm 0.00 in0.0 mm
12:20 AM 61.3°F16.3°C 59.6°F15.3°C 94% Calm Calm -- 30.01 in1016.3 mb - 0.00 in0.0 mm 0.00 in0.0 mm
12:15 AM 61.3°F16.3°C 59.6°F15.3°C 94% Calm Calm -- 30.01 in1016.3 mb - 0.00 in0.0 mm 0.00 in0.0 mm
12:10 AM 61.7°F16.5°C 60.0°F15.6°C 94% Calm Calm -- 30.01 in1016.3 mb - 0.00 in0.0 mm 0.00 in0.0 mm
12:05 AM 61.7°F16.5°C 60.0°F15.6°C 94% Calm Calm -- 30.01 in1016.3 mb - 0.00 in0.0 mm 0.00 in0.0 mm
12:00 AM 61.9°F16.6°C 60.1°F15.6°C 94% Calm Calm -- 30.01 in1016.3 mb - 0.00 in0.0 mm 0.00 in0.0 mm